Time;durP1;ratioP1;P1;durP2;ratioP2;P2;SDS_P1;SDS_P2;PMS_P1;PMS_P2;Temp;Humidity;BMP_temperature;BMP_pressure;BME280_temperature;BME280_humidity;BME280_pressure;Samples;Min_cycle;Max_cycle;Signal;HPM_P1;HPM_P2
2021/06/25 00:00:18;;;;;;;1.40;1.30;;;;;;;;;;4971502;28;20437;-72
2021/06/25 00:02:44;;;;;;;2.03;1.77;;;;;;;;;;4964517;28;20441;-73
2021/06/25 00:05:10;;;;;;;1.60;1.50;;;;;;;;;;4977572;28;20444;-75
2021/06/25 00:07:36;;;;;;;1.27;1.20;;;;;;;;;;4976027;28;20461;-72
2021/06/25 00:10:07;;;;;;;2.03;1.20;;;;;;;;;;4973710;28;21108;-72
2021/06/25 00:12:33;;;;;;;3.33;2.20;;;;;;;;;;4973714;28;21196;-72
2021/06/25 00:14:59;;;;;;;1.37;1.27;;;;;;;;;;4969237;28;20444;-71
2021/06/25 00:17:25;;;;;;;4.43;1.50;;;;;;;;;;4983757;28;20844;-71
2021/06/25 00:19:51;;;;;;;1.87;1.73;;;;;;;;;;4978517;28;20459;-72
2021/06/25 00:22:17;;;;;;;3.23;1.83;;;;;;;;;;4980916;28;20931;-72
2021/06/25 00:24:43;;;;;;;2.10;1.80;;;;;;;;;;4987604;28;20499;-72
2021/06/25 00:27:09;;;;;;;1.87;1.60;;;;;;;;;;4984207;28;20468;-73
2021/06/25 00:29:35;;;;;;;1.50;1.40;;;;;;;;;;4981191;28;20539;-71
2021/06/25 00:32:01;;;;;;;1.50;1.40;;;;;;;;;;4968676;28;20442;-72
2021/06/25 00:34:27;;;;;;;2.03;1.73;;;;;;;;;;4981928;28;20441;-71
2021/06/25 00:36:53;;;;;;;1.70;1.60;;;;;;;;;;4982368;28;20512;-72
2021/06/25 00:39:19;;;;;;;1.57;1.47;;;;;;;;;;4978532;28;20882;-72
2021/06/25 00:41:45;;;;;;;1.97;1.87;;;;;;;;;;4983292;28;20437;-73
2021/06/25 00:44:21;;;;;;;2.33;2.13;;;;;;;;;;4978170;28;20433;-73
2021/06/25 00:46:47;;;;;;;1.60;1.40;;;;;;;;;;4981740;28;21221;-73
2021/06/25 00:49:14;;;;;;;1.83;1.73;;;;;;;;;;4979807;28;20586;-76
2021/06/25 00:51:40;;;;;;;2.60;2.07;;;;;;;;;;4982294;28;20456;-75
2021/06/25 00:54:07;;;;;;;2.23;1.90;;;;;;;;;;4980775;28;20532;-74
2021/06/25 00:56:33;;;;;;;2.00;1.70;;;;;;;;;;4980744;28;20487;-72
2021/06/25 00:59:00;;;;;;;2.03;1.83;;;;;;;;;;4982361;28;20445;-72
2021/06/25 01:01:26;;;;;;;2.07;1.87;;;;;;;;;;4981890;28;20452;-73
2021/06/25 01:03:52;;;;;;;1.57;1.47;;;;;;;;;;4980633;28;20448;-73
2021/06/25 01:06:18;;;;;;;2.70;2.03;;;;;;;;;;4979660;28;20451;-74
2021/06/25 01:08:45;;;;;;;2.80;1.77;;;;;;;;;;4977663;28;20443;-72
2021/06/25 01:11:11;;;;;;;3.40;2.60;;;;;;;;;;4972113;28;20448;-71
2021/06/25 01:13:39;;;;;;;1.90;1.80;;;;;;;;;;4981343;28;20449;-76
2021/06/25 01:16:06;;;;;;;3.07;2.30;;;;;;;;;;4982104;28;20978;-72
2021/06/25 01:18:32;;;;;;;2.90;2.33;;;;;;;;;;4982163;28;20464;-74
2021/06/25 01:20:59;;;;;;;2.63;1.90;;;;;;;;;;4977589;28;20452;-72
2021/06/25 01:23:26;;;;;;;3.87;2.40;;;;;;;;;;4979812;28;20445;-75
2021/06/25 01:25:52;;;;;;;3.17;1.80;;;;;;;;;;4980806;28;20499;-72
2021/06/25 01:28:18;;;;;;;4.50;2.67;;;;;;;;;;4981457;28;20504;-74
2021/06/25 01:30:45;;;;;;;2.60;2.37;;;;;;;;;;4970447;28;20437;-73
2021/06/25 01:33:13;;;;;;;4.33;2.40;;;;;;;;;;4983283;28;20441;-73
2021/06/25 01:35:39;;;;;;;2.73;2.47;;;;;;;;;;4974836;28;20441;-71
2021/06/25 01:38:05;;;;;;;3.90;2.43;;;;;;;;;;4977399;28;20492;-71
2021/06/25 01:40:32;;;;;;;2.60;2.00;;;;;;;;;;4986688;28;20854;-72
2021/06/25 01:42:59;;;;;;;2.80;2.27;;;;;;;;;;4982094;28;20453;-74
2021/06/25 01:45:26;;;;;;;3.10;2.30;;;;;;;;;;4981640;28;20466;-70
2021/06/25 01:47:53;;;;;;;2.60;2.20;;;;;;;;;;4984118;28;20529;-72
2021/06/25 01:50:20;;;;;;;3.07;2.37;;;;;;;;;;4982844;28;20441;-70
2021/06/25 01:52:46;;;;;;;3.13;2.63;;;;;;;;;;4974683;28;20447;-76
2021/06/25 01:55:13;;;;;;;9.60;3.00;;;;;;;;;;4978614;28;20527;-75
2021/06/25 01:57:39;;;;;;;2.40;2.20;;;;;;;;;;4980819;28;20607;-71
2021/06/25 02:00:05;;;;;;;4.67;2.33;;;;;;;;;;4984261;28;20475;-72
2021/06/25 02:02:31;;;;;;;2.77;2.50;;;;;;;;;;4980287;28;21134;-72
2021/06/25 02:04:57;;;;;;;3.03;2.73;;;;;;;;;;4984867;28;20440;-73
2021/06/25 02:07:23;;;;;;;2.30;2.10;;;;;;;;;;4986362;28;20464;-71
2021/06/25 02:09:49;;;;;;;3.37;2.80;;;;;;;;;;4973954;28;20970;-72
2021/06/25 02:12:15;;;;;;;2.57;2.30;;;;;;;;;;4975403;28;20433;-72
2021/06/25 02:14:41;;;;;;;2.93;2.40;;;;;;;;;;4983955;28;20474;-75
2021/06/25 02:17:07;;;;;;;2.83;2.47;;;;;;;;;;4982737;28;20522;-74
2021/06/25 02:19:33;;;;;;;2.87;2.50;;;;;;;;;;4982126;28;20436;-72
2021/06/25 02:22:00;;;;;;;4.00;2.80;;;;;;;;;;4982732;28;20539;-72
2021/06/25 02:24:26;;;;;;;2.50;2.30;;;;;;;;;;4982152;28;20448;-77
2021/06/25 02:26:52;;;;;;;3.33;2.80;;;;;;;;;;4974930;28;21342;-72
2021/06/25 02:29:18;;;;;;;4.40;3.03;;;;;;;;;;4978277;28;20444;-72
2021/06/25 02:31:44;;;;;;;4.93;3.17;;;;;;;;;;4964833;28;20500;-72
2021/06/25 02:34:10;;;;;;;3.47;2.13;;;;;;;;;;4964499;28;20833;-74
2021/06/25 02:36:36;;;;;;;4.00;2.53;;;;;;;;;;4984225;28;20524;-72
2021/06/25 02:39:03;;;;;;;2.30;2.20;;;;;;;;;;4982869;28;20433;-73
2021/06/25 02:41:29;;;;;;;3.50;2.47;;;;;;;;;;4983116;28;20433;-74
2021/06/25 02:43:55;;;;;;;4.30;3.20;;;;;;;;;;4974496;28;20858;-73
2021/06/25 02:46:21;;;;;;;4.00;2.53;;;;;;;;;;4983522;28;20449;-73
2021/06/25 02:48:47;;;;;;;3.07;2.73;;;;;;;;;;4979855;28;20548;-72
2021/06/25 02:51:13;;;;;;;2.40;2.20;;;;;;;;;;4974656;28;21415;-72
2021/06/25 02:53:39;;;;;;;2.90;2.20;;;;;;;;;;4969745;28;20528;-72
2021/06/25 02:56:05;;;;;;;3.10;2.77;;;;;;;;;;4982817;28;20868;-73
2021/06/25 02:58:31;;;;;;;3.83;2.60;;;;;;;;;;4984201;28;20476;-72
2021/06/25 03:00:57;;;;;;;3.10;2.80;;;;;;;;;;4987595;28;20882;-73
2021/06/25 03:03:23;;;;;;;2.40;2.20;;;;;;;;;;4982910;28;20958;-72
2021/06/25 03:05:50;;;;;;;2.37;2.13;;;;;;;;;;4982531;28;21486;-72
2021/06/25 03:08:16;;;;;;;2.43;2.17;;;;;;;;;;4975034;28;20548;-73
2021/06/25 03:10:43;;;;;;;2.60;1.97;;;;;;;;;;4979567;28;20441;-72
2021/06/25 03:13:10;;;;;;;3.83;2.47;;;;;;;;;;4984638;28;20444;-72
2021/06/25 03:15:36;;;;;;;2.90;2.67;;;;;;;;;;4983593;28;20445;-72
2021/06/25 03:18:02;;;;;;;5.10;3.10;;;;;;;;;;4984843;28;20477;-72
2021/06/25 03:20:28;;;;;;;5.53;3.23;;;;;;;;;;4985554;28;20951;-72
2021/06/25 03:22:54;;;;;;;3.50;3.13;;;;;;;;;;4972059;28;20432;-71
2021/06/25 03:25:20;;;;;;;4.13;3.00;;;;;;;;;;4982477;28;20441;-74
2021/06/25 03:27:46;;;;;;;3.70;3.40;;;;;;;;;;4966715;28;20480;-74
2021/06/25 03:30:13;;;;;;;5.63;3.50;;;;;;;;;;4973723;28;20447;-72
2021/06/25 03:32:39;;;;;;;3.07;2.77;;;;;;;;;;4982498;28;20930;-73
2021/06/25 03:35:06;;;;;;;3.93;3.10;;;;;;;;;;4979232;28;20947;-73
2021/06/25 03:37:32;;;;;;;2.70;2.50;;;;;;;;;;4981918;28;20488;-74
2021/06/25 03:39:58;;;;;;;4.13;3.30;;;;;;;;;;4980648;28;20579;-74
2021/06/25 03:42:24;;;;;;;3.60;2.70;;;;;;;;;;4971405;28;20963;-73
2021/06/25 03:44:50;;;;;;;4.00;3.07;;;;;;;;;;4980439;28;20499;-73
2021/06/25 03:47:16;;;;;;;5.23;2.90;;;;;;;;;;4981402;28;20955;-74
2021/06/25 03:49:42;;;;;;;5.00;2.80;;;;;;;;;;4985287;28;20939;-72
2021/06/25 03:52:08;;;;;;;7.30;3.40;;;;;;;;;;4962052;28;20962;-74
2021/06/25 03:54:35;;;;;;;3.50;2.57;;;;;;;;;;4978931;28;20448;-73
2021/06/25 03:57:01;;;;;;;2.57;2.37;;;;;;;;;;4982318;28;20983;-73
2021/06/25 03:59:27;;;;;;;4.07;3.20;;;;;;;;;;4986577;28;20460;-70
2021/06/25 04:01:53;;;;;;;4.03;3.17;;;;;;;;;;4981213;28;20931;-71
2021/06/25 04:04:19;;;;;;;3.80;2.60;;;;;;;;;;4979891;28;20467;-72
2021/06/25 04:06:46;;;;;;;4.40;3.07;;;;;;;;;;4965142;28;20460;-76
2021/06/25 04:09:12;;;;;;;4.57;3.47;;;;;;;;;;4980354;28;22186;-72
2021/06/25 04:11:38;;;;;;;4.03;3.00;;;;;;;;;;4968191;28;20441;-74
2021/06/25 04:14:04;;;;;;;5.10;2.83;;;;;;;;;;4984103;28;20440;-73
2021/06/25 04:16:30;;;;;;;4.20;2.70;;;;;;;;;;4983902;28;20469;-72
2021/06/25 04:18:56;;;;;;;4.17;3.27;;;;;;;;;;4975289;28;20429;-75
2021/06/25 04:21:23;;;;;;;4.77;3.63;;;;;;;;;;4985866;28;20785;-72
2021/06/25 04:23:49;;;;;;;3.40;2.67;;;;;;;;;;4983672;28;20522;-72
2021/06/25 04:26:15;;;;;;;5.73;3.47;;;;;;;;;;4975200;28;20441;-71
2021/06/25 04:28:42;;;;;;;6.10;3.20;;;;;;;;;;4986555;28;20978;-72
2021/06/25 04:31:08;;;;;;;6.37;3.37;;;;;;;;;;4986739;28;20429;-73
2021/06/25 04:33:35;;;;;;;4.33;2.57;;;;;;;;;;4978085;28;20441;-74
2021/06/25 04:36:01;;;;;;;4.63;3.13;;;;;;;;;;4985541;28;20448;-72
2021/06/25 04:38:27;;;;;;;12.77;3.40;;;;;;;;;;4982851;28;20480;-71
2021/06/25 04:40:53;;;;;;;7.83;3.63;;;;;;;;;;4961980;28;20459;-73
2021/06/25 04:43:20;;;;;;;4.20;3.40;;;;;;;;;;4973298;28;20912;-72
2021/06/25 04:45:46;;;;;;;3.90;3.40;;;;;;;;;;4970966;28;20873;-76
2021/06/25 04:48:13;;;;;;;5.40;3.20;;;;;;;;;;4980214;28;20457;-72
2021/06/25 04:50:40;;;;;;;5.00;3.30;;;;;;;;;;4965772;28;20444;-73
2021/06/25 04:53:06;;;;;;;3.60;3.30;;;;;;;;;;4982245;28;20437;-77
2021/06/25 04:55:41;;;;;;;4.43;3.23;;;;;;;;;;4979301;28;20445;-73
2021/06/25 04:58:08;;;;;;;4.37;3.67;;;;;;;;;;4974663;28;20471;-75
2021/06/25 05:00:34;;;;;;;10.27;4.00;;;;;;;;;;4980721;28;20464;-74
2021/06/25 05:03:00;;;;;;;5.03;3.70;;;;;;;;;;4975788;28;20468;-76
2021/06/25 05:05:27;;;;;;;4.43;3.13;;;;;;;;;;4972883;28;20853;-74
2021/06/25 05:07:53;;;;;;;4.70;3.43;;;;;;;;;;4983518;28;20977;-72
2021/06/25 05:10:18;;;;;;;6.17;3.90;;;;;;;;;;4981669;28;20445;-73
2021/06/25 05:12:45;;;;;;;5.00;3.83;;;;;;;;;;4966663;28;20441;-73
2021/06/25 05:15:11;;;;;;;4.37;3.03;;;;;;;;;;4976193;28;20455;-74
2021/06/25 05:17:37;;;;;;;7.00;3.90;;;;;;;;;;4972234;28;20579;-73
2021/06/25 05:20:04;;;;;;;4.90;3.67;;;;;;;;;;4970587;28;20492;-73
2021/06/25 05:22:30;;;;;;;4.50;3.53;;;;;;;;;;4984814;28;20465;-74
2021/06/25 05:24:56;;;;;;;6.90;3.73;;;;;;;;;;4986568;28;20428;-74
2021/06/25 05:27:22;;;;;;;7.20;3.83;;;;;;;;;;4984261;28;20555;-75
2021/06/25 05:29:48;;;;;;;3.93;3.53;;;;;;;;;;4983878;28;21396;-74
2021/06/25 05:32:14;;;;;;;5.20;3.80;;;;;;;;;;4970815;28;21004;-73
2021/06/25 05:34:40;;;;;;;5.23;3.63;;;;;;;;;;4976897;28;20469;-76
2021/06/25 05:37:06;;;;;;;5.63;4.33;;;;;;;;;;4980585;28;20583;-73
2021/06/25 05:39:32;;;;;;;8.83;4.20;;;;;;;;;;4972536;28;20584;-73
2021/06/25 05:41:58;;;;;;;3.83;3.10;;;;;;;;;;4985281;28;20915;-73
2021/06/25 05:44:24;;;;;;;4.27;3.37;;;;;;;;;;4972427;28;20437;-73
2021/06/25 05:46:50;;;;;;;4.73;3.10;;;;;;;;;;4974395;28;20812;-76
2021/06/25 05:49:16;;;;;;;6.60;4.40;;;;;;;;;;4982163;28;20449;-72
2021/06/25 05:51:42;;;;;;;3.73;3.00;;;;;;;;;;4970171;28;20442;-74
2021/06/25 05:54:08;;;;;;;5.57;3.60;;;;;;;;;;4977636;28;21068;-76
2021/06/25 05:56:34;;;;;;;6.77;4.30;;;;;;;;;;4980500;28;20472;-73
2021/06/25 05:59:00;;;;;;;6.73;4.00;;;;;;;;;;4986084;28;20463;-74
2021/06/25 06:01:29;;;;;;;4.87;3.70;;;;;;;;;;4982723;28;20570;-74
2021/06/25 06:03:55;;;;;;;4.93;4.27;;;;;;;;;;4981392;28;20429;-73
2021/06/25 06:06:21;;;;;;;4.83;3.57;;;;;;;;;;4967811;28;21085;-73
2021/06/25 06:08:47;;;;;;;6.37;4.50;;;;;;;;;;4978908;28;20495;-72
2021/06/25 06:11:13;;;;;;;5.17;3.70;;;;;;;;;;4966137;28;21511;-73
2021/06/25 06:13:39;;;;;;;5.10;3.93;;;;;;;;;;4983642;28;20444;-73
2021/06/25 06:16:05;;;;;;;6.30;5.20;;;;;;;;;;4982631;28;20452;-74
2021/06/25 06:18:37;;;;;;;5.87;3.93;;;;;;;;;;4988548;28;20452;-73
2021/06/25 06:21:03;;;;;;;5.20;3.53;;;;;;;;;;4990597;28;20440;-74
2021/06/25 06:31:51;;;;;;;7.60;5.03;;;;;;;;;;4985984;28;20816;-74
2021/06/25 06:34:18;;;;;;;8.27;4.47;;;;;;;;;;4988491;28;20938;-74
2021/06/25 06:36:45;;;;;;;6.93;4.90;;;;;;;;;;4986740;28;20642;-76
2021/06/25 06:39:12;;;;;;;9.63;5.30;;;;;;;;;;4989337;28;20433;-74
2021/06/25 06:41:39;;;;;;;10.43;5.20;;;;;;;;;;4987820;28;20452;-76
2021/06/25 06:44:06;;;;;;;7.30;5.07;;;;;;;;;;4982983;28;25890;-75
2021/06/25 06:46:32;;;;;;;7.10;5.10;;;;;;;;;;4983423;28;20935;-74
2021/06/25 06:48:58;;;;;;;7.70;5.23;;;;;;;;;;4988404;28;20527;-73
2021/06/25 06:51:24;;;;;;;6.10;4.57;;;;;;;;;;4990001;28;20943;-74
2021/06/25 06:53:50;;;;;;;6.03;4.70;;;;;;;;;;4987542;28;20433;-72
2021/06/25 06:56:17;;;;;;;8.70;6.07;;;;;;;;;;4989828;28;20440;-74
2021/06/25 06:58:45;;;;;;;6.60;5.00;;;;;;;;;;4987468;28;20954;-73
2021/06/25 07:01:11;;;;;;;6.10;4.50;;;;;;;;;;4987820;28;20436;-74
2021/06/25 07:03:37;;;;;;;11.10;6.20;;;;;;;;;;4987612;28;20441;-72
2021/06/25 07:06:04;;;;;;;9.80;5.90;;;;;;;;;;4984534;28;20436;-76
2021/06/25 07:08:30;;;;;;;8.87;5.83;;;;;;;;;;4979086;28;20460;-74
2021/06/25 07:10:57;;;;;;;11.90;5.80;;;;;;;;;;4978218;28;20449;-74
2021/06/25 07:13:23;;;;;;;11.30;6.37;;;;;;;;;;4977702;28;20440;-74
2021/06/25 07:15:49;;;;;;;6.70;5.00;;;;;;;;;;4986735;28;20456;-73
2021/06/25 07:18:15;;;;;;;8.10;5.30;;;;;;;;;;4977747;28;20484;-74
2021/06/25 07:20:41;;;;;;;6.37;4.90;;;;;;;;;;4984397;28;20441;-74
2021/06/25 07:23:07;;;;;;;11.30;6.00;;;;;;;;;;4987185;28;20506;-72
2021/06/25 07:25:33;;;;;;;8.83;5.77;;;;;;;;;;4978078;28;20433;-76
2021/06/25 07:27:59;;;;;;;7.23;4.70;;;;;;;;;;4986465;28;20509;-74
2021/06/25 07:30:25;;;;;;;7.27;5.43;;;;;;;;;;4984427;28;20472;-73
2021/06/25 07:32:51;;;;;;;7.80;5.00;;;;;;;;;;4975729;28;20452;-76
2021/06/25 07:35:17;;;;;;;7.60;5.00;;;;;;;;;;4991570;28;20938;-73
2021/06/25 07:37:43;;;;;;;6.63;5.17;;;;;;;;;;4984389;28;20491;-73
2021/06/25 07:40:10;;;;;;;7.37;6.00;;;;;;;;;;4982052;28;20433;-73
2021/06/25 07:42:36;;;;;;;8.63;4.67;;;;;;;;;;4982146;28;20943;-73
2021/06/25 07:45:07;;;;;;;9.50;5.93;;;;;;;;;;4985332;28;20536;-75
2021/06/25 07:47:34;;;;;;;7.00;5.27;;;;;;;;;;4986755;28;20461;-74
2021/06/25 07:50:00;;;;;;;6.73;4.97;;;;;;;;;;4982638;28;20445;-73
2021/06/25 07:52:26;;;;;;;8.93;4.80;;;;;;;;;;4983589;28;20463;-73
2021/06/25 07:54:52;;;;;;;5.77;4.87;;;;;;;;;;4975856;28;20440;-73
2021/06/25 07:57:18;;;;;;;4.70;3.80;;;;;;;;;;4985448;28;20480;-76
2021/06/25 07:59:44;;;;;;;11.10;5.83;;;;;;;;;;4982505;28;20989;-72
2021/06/25 08:02:10;;;;;;;4.67;4.20;;;;;;;;;;4985003;28;20455;-73
2021/06/25 08:04:37;;;;;;;7.17;3.90;;;;;;;;;;4985846;28;20543;-75
2021/06/25 08:07:03;;;;;;;5.40;3.97;;;;;;;;;;4986838;28;20456;-73
2021/06/25 08:09:29;;;;;;;4.07;3.37;;;;;;;;;;4987647;28;20527;-74
2021/06/25 08:11:55;;;;;;;6.03;3.83;;;;;;;;;;4981454;28;20441;-75
2021/06/25 08:14:21;;;;;;;5.00;3.53;;;;;;;;;;4966197;28;20446;-73
2021/06/25 08:16:47;;;;;;;4.83;4.07;;;;;;;;;;4982535;28;20480;-74
2021/06/25 08:19:13;;;;;;;6.70;4.60;;;;;;;;;;4974722;28;20502;-73
2021/06/25 08:21:39;;;;;;;6.90;4.40;;;;;;;;;;4976084;28;20848;-74
2021/06/25 08:24:05;;;;;;;4.60;3.70;;;;;;;;;;4984081;28;20631;-74
2021/06/25 08:26:31;;;;;;;7.40;4.83;;;;;;;;;;4984691;28;20437;-73
2021/06/25 08:28:57;;;;;;;9.97;6.13;;;;;;;;;;4986987;28;20527;-74
2021/06/25 08:31:23;;;;;;;6.60;4.53;;;;;;;;;;4983816;28;20495;-73
2021/06/25 08:33:49;;;;;;;7.47;3.80;;;;;;;;;;4984165;28;20433;-76
2021/06/25 08:36:15;;;;;;;6.17;4.80;;;;;;;;;;4986393;28;20531;-73
2021/06/25 08:38:42;;;;;;;6.30;4.43;;;;;;;;;;4983070;28;20575;-72
2021/06/25 08:41:08;;;;;;;6.67;5.00;;;;;;;;;;4984518;28;20438;-73
2021/06/25 08:43:34;;;;;;;5.70;3.60;;;;;;;;;;4986207;28;20460;-73
2021/06/25 08:46:00;;;;;;;4.00;3.10;;;;;;;;;;4985576;28;26110;-73
2021/06/25 08:48:27;;;;;;;3.20;2.60;;;;;;;;;;4970587;28;20476;-73
2021/06/25 08:50:54;;;;;;;5.10;3.70;;;;;;;;;;4983947;28;20441;-74
2021/06/25 08:53:20;;;;;;;5.27;4.17;;;;;;;;;;4978440;28;20473;-73
2021/06/25 08:55:46;;;;;;;3.77;3.23;;;;;;;;;;4974255;28;20437;-76
2021/06/25 08:58:16;;;;;;;5.97;3.67;;;;;;;;;;4982270;28;20487;-74
2021/06/25 09:00:42;;;;;;;4.20;3.03;;;;;;;;;;4975753;28;20433;-72
2021/06/25 09:03:12;;;;;;;4.57;3.60;;;;;;;;;;4983408;28;20523;-72
2021/06/25 09:05:38;;;;;;;3.53;2.93;;;;;;;;;;4976553;28;20779;-73
2021/06/25 09:08:04;;;;;;;4.03;3.00;;;;;;;;;;4977984;28;20468;-73
2021/06/25 09:10:32;;;;;;;5.17;3.50;;;;;;;;;;4982855;28;20547;-71
2021/06/25 09:13:06;;;;;;;4.67;4.17;;;;;;;;;;4968004;28;20502;-70
2021/06/25 09:15:32;;;;;;;4.63;3.90;;;;;;;;;;4978575;28;20453;-70
2021/06/25 09:18:03;;;;;;;5.87;4.00;;;;;;;;;;4965984;28;20515;-72
2021/06/25 09:20:30;;;;;;;2.60;2.40;;;;;;;;;;4980881;28;20452;-71
2021/06/25 09:22:56;;;;;;;3.63;2.67;;;;;;;;;;4973194;28;20465;-72
2021/06/25 09:25:22;;;;;;;3.73;2.50;;;;;;;;;;4958892;28;20529;-71
2021/06/25 09:27:56;;;;;;;3.60;2.27;;;;;;;;;;4974789;28;20471;-69
2021/06/25 09:30:22;;;;;;;3.30;2.20;;;;;;;;;;4981632;28;20459;-70
2021/06/25 09:32:50;;;;;;;4.37;3.00;;;;;;;;;;4978992;28;20503;-69
2021/06/25 09:35:18;;;;;;;2.83;1.80;;;;;;;;;;4973811;28;21038;-70
2021/06/25 09:37:45;;;;;;;1.80;1.50;;;;;;;;;;4980198;28;20491;-71
2021/06/25 09:40:13;;;;;;;2.00;1.80;;;;;;;;;;4981400;28;20994;-71
2021/06/25 09:42:39;;;;;;;2.00;1.80;;;;;;;;;;4979478;28;20472;-73
2021/06/25 09:45:07;;;;;;;3.73;1.90;;;;;;;;;;4962535;28;20464;-72
2021/06/25 09:47:35;;;;;;;11.47;2.57;;;;;;;;;;4978114;28;20468;-71
2021/06/25 09:50:04;;;;;;;9.47;1.87;;;;;;;;;;4980361;28;20469;-72
2021/06/25 09:52:50;;;;;;;3.53;2.27;;;;;;;;;;4982841;28;20451;-73
2021/06/25 09:55:16;;;;;;;3.40;2.27;;;;;;;;;;4979815;28;20447;-69
2021/06/25 10:03:50;;;;;;;1.70;1.60;;;;;;;;;;4982268;28;20831;-74
2021/06/25 10:06:17;;;;;;;1.60;1.50;;;;;;;;;;4980891;28;20433;-71
2021/06/25 10:08:47;;;;;;;2.57;1.53;;;;;;;;;;4984470;28;20549;-71
2021/06/25 10:11:14;;;;;;;2.10;1.30;;;;;;;;;;4968248;28;20480;-69
2021/06/25 10:13:41;;;;;;;2.20;1.50;;;;;;;;;;4986058;28;20445;-70
2021/06/25 10:16:08;;;;;;;1.70;1.60;;;;;;;;;;4982866;28;20527;-72
2021/06/25 10:18:39;;;;;;;3.27;1.70;;;;;;;;;;4985199;28;20488;-70
2021/06/25 10:21:06;;;;;;;5.40;1.83;;;;;;;;;;4986618;28;20437;-73
2021/06/25 10:23:33;;;;;;;1.90;1.70;;;;;;;;;;4986659;28;20444;-72
2021/06/25 10:25:59;;;;;;;2.00;1.90;;;;;;;;;;4975419;28;20448;-69
2021/06/25 10:28:26;;;;;;;1.77;1.37;;;;;;;;;;4985022;28;20476;-70
2021/06/25 10:30:52;;;;;;;2.40;1.63;;;;;;;;;;4973030;28;20440;-72
2021/06/25 10:33:18;;;;;;;1.60;1.50;;;;;;;;;;4982903;28;20920;-73
2021/06/25 10:35:45;;;;;;;3.00;2.03;;;;;;;;;;4986627;28;21001;-72
2021/06/25 10:38:11;;;;;;;4.30;1.87;;;;;;;;;;4986797;28;20490;-70
2021/06/25 10:40:37;;;;;;;2.40;2.00;;;;;;;;;;4986936;28;20440;-70
2021/06/25 10:43:04;;;;;;;2.50;2.30;;;;;;;;;;4971676;28;20425;-70
2021/06/25 10:45:43;;;;;;;3.90;2.60;;;;;;;;;;4984305;28;20436;-71
2021/06/25 10:48:09;;;;;;;3.83;2.50;;;;;;;;;;4972818;28;20474;-72
2021/06/25 10:50:36;;;;;;;4.07;3.33;;;;;;;;;;4986378;28;21608;-69
2021/06/25 10:53:06;;;;;;;3.27;2.53;;;;;;;;;;4974579;28;20440;-74
2021/06/25 10:55:33;;;;;;;2.37;2.17;;;;;;;;;;4985244;28;20989;-72
2021/06/25 10:57:59;;;;;;;3.27;2.60;;;;;;;;;;4960024;28;21030;-73
2021/06/25 11:00:49;;;;;;;2.53;2.10;;;;;;;;;;4982671;28;20503;-73
2021/06/25 11:03:30;;;;;;;5.43;2.97;;;;;;;;;;4973754;28;20665;-70
2021/06/25 11:05:56;;;;;;;3.77;3.13;;;;;;;;;;4972677;28;20480;-71
2021/06/25 11:08:22;;;;;;;5.43;3.37;;;;;;;;;;4978510;28;20461;-72
2021/06/25 11:10:50;;;;;;;2.90;2.60;;;;;;;;;;4973087;28;20608;-71
2021/06/25 11:13:16;;;;;;;2.10;1.87;;;;;;;;;;4982670;28;20452;-71
2021/06/25 11:15:44;;;;;;;5.00;3.17;;;;;;;;;;4969288;28;20447;-71
2021/06/25 11:18:20;;;;;;;3.50;2.57;;;;;;;;;;4983827;28;20844;-70
2021/06/25 11:20:59;;;;;;;3.63;2.80;;;;;;;;;;4981964;28;21477;-73
2021/06/25 11:23:28;;;;;;;4.67;2.63;;;;;;;;;;4971620;28;20980;-69
2021/06/25 11:25:58;;;;;;;4.60;3.17;;;;;;;;;;4978031;28;20951;-71
2021/06/25 11:28:36;;;;;;;10.80;4.93;;;;;;;;;;4983780;28;20557;-71
2021/06/25 11:31:05;;;;;;;4.33;3.10;;;;;;;;;;4978859;28;20979;-71
2021/06/25 11:33:34;;;;;;;9.70;4.03;;;;;;;;;;4974599;28;20441;-72
2021/06/25 11:36:20;;;;;;;5.00;3.50;;;;;;;;;;4981375;28;20433;-75
2021/06/25 11:39:01;;;;;;;5.80;3.07;;;;;;;;;;4983696;28;20453;-73
2021/06/25 11:41:29;;;;;;;2.47;2.27;;;;;;;;;;4979591;28;20515;-72
2021/06/25 11:43:56;;;;;;;3.70;3.13;;;;;;;;;;4986465;28;20867;-71
2021/06/25 11:46:22;;;;;;;6.00;4.00;;;;;;;;;;4975835;28;20798;-71
2021/06/25 11:48:50;;;;;;;5.40;3.50;;;;;;;;;;4984761;28;20432;-70
2021/06/25 11:51:18;;;;;;;4.60;2.97;;;;;;;;;;4980206;28;20434;-71
2021/06/25 11:53:45;;;;;;;3.90;3.47;;;;;;;;;;4979217;28;21003;-71
2021/06/25 11:56:21;;;;;;;9.60;4.30;;;;;;;;;;4982015;28;20447;-73
2021/06/25 11:58:57;;;;;;;9.80;4.03;;;;;;;;;;4980566;28;20448;-72
2021/06/25 12:01:23;;;;;;;5.10;3.37;;;;;;;;;;4980246;28;20451;-71
2021/06/25 12:03:49;;;;;;;7.37;4.67;;;;;;;;;;4980459;28;20445;-71
2021/06/25 12:06:15;;;;;;;4.43;3.50;;;;;;;;;;4982731;28;20436;-71
2021/06/25 12:08:53;;;;;;;5.13;2.97;;;;;;;;;;4975753;28;20816;-72
2021/06/25 12:11:21;;;;;;;4.80;3.67;;;;;;;;;;4982943;28;20476;-72
2021/06/25 12:13:54;;;;;;;7.33;4.23;;;;;;;;;;4982088;28;20440;-70
2021/06/25 12:16:20;;;;;;;6.47;4.20;;;;;;;;;;4980729;28;20447;-69
2021/06/25 12:18:46;;;;;;;4.40;3.50;;;;;;;;;;4972954;28;20433;-71
2021/06/25 12:21:15;;;;;;;9.73;4.37;;;;;;;;;;4981302;28;20429;-73
2021/06/25 12:23:41;;;;;;;6.23;3.90;;;;;;;;;;4984221;28;20441;-70
2021/06/25 12:26:19;;;;;;;5.17;3.67;;;;;;;;;;4983340;28;20435;-70
2021/06/25 12:28:53;;;;;;;11.23;4.17;;;;;;;;;;4976457;28;20486;-71
2021/06/25 12:31:21;;;;;;;4.93;3.67;;;;;;;;;;4972207;28;20579;-72
2021/06/25 12:33:48;;;;;;;5.40;4.40;;;;;;;;;;4982479;28;20551;-72
2021/06/25 12:36:17;;;;;;;7.30;4.73;;;;;;;;;;4979969;28;20816;-69
2021/06/25 12:38:46;;;;;;;6.20;4.00;;;;;;;;;;4980531;28;20544;-70
2021/06/25 12:41:13;;;;;;;8.77;5.07;;;;;;;;;;4983772;28;20499;-71
2021/06/25 12:43:47;;;;;;;5.10;3.47;;;;;;;;;;4982888;28;20448;-71
2021/06/25 12:46:15;;;;;;;5.20;3.57;;;;;;;;;;4979105;28;20425;-71
2021/06/25 12:48:45;;;;;;;6.30;3.80;;;;;;;;;;4984332;28;20516;-72
2021/06/25 12:51:11;;;;;;;6.30;4.17;;;;;;;;;;4984427;28;20463;-72
2021/06/25 12:53:38;;;;;;;4.60;3.53;;;;;;;;;;4981646;28;20472;-74
2021/06/25 12:56:09;;;;;;;7.23;4.47;;;;;;;;;;4978540;28;20556;-71
2021/06/25 12:58:39;;;;;;;6.00;3.90;;;;;;;;;;4981482;28;20479;-71
2021/06/25 13:01:05;;;;;;;5.67;3.70;;;;;;;;;;4979877;28;20451;-71
2021/06/25 13:03:32;;;;;;;5.20;3.90;;;;;;;;;;4978704;28;20469;-69
2021/06/25 13:05:58;;;;;;;6.23;3.70;;;;;;;;;;4973604;28;20848;-73
2021/06/25 13:08:26;;;;;;;5.50;4.10;;;;;;;;;;4980379;28;20462;-70
2021/06/25 13:10:53;;;;;;;5.37;3.60;;;;;;;;;;4982096;28;20473;-69
2021/06/25 13:13:24;;;;;;;4.80;3.50;;;;;;;;;;4978173;28;20445;-75
2021/06/25 13:15:52;;;;;;;5.27;4.30;;;;;;;;;;4996086;28;20444;-73
2021/06/25 13:18:20;;;;;;;5.60;4.13;;;;;;;;;;4987707;28;20899;-72
2021/06/25 13:21:21;;;;;;;5.30;4.43;;;;;;;;;;4962681;28;20448;-74
2021/06/25 13:23:50;;;;;;;5.33;3.33;;;;;;;;;;4892664;29;20452;-70
2021/06/25 13:26:21;;;;;;;4.73;3.20;;;;;;;;;;4947817;28;20475;-72
2021/06/25 13:29:00;;;;;;;5.60;3.80;;;;;;;;;;4965243;28;20460;-71
2021/06/25 13:31:27;;;;;;;7.70;5.13;;;;;;;;;;4982312;28;20444;-70
2021/06/25 13:33:53;;;;;;;6.43;4.00;;;;;;;;;;4981040;28;20995;-72
2021/06/25 13:36:19;;;;;;;6.53;4.20;;;;;;;;;;4976977;28;20812;-71
2021/06/25 13:38:45;;;;;;;4.30;3.90;;;;;;;;;;4973630;28;20924;-70
2021/06/25 13:41:22;;;;;;;5.13;3.47;;;;;;;;;;4973823;28;20420;-74
2021/06/25 13:43:55;;;;;;;5.37;3.70;;;;;;;;;;4980724;28;20795;-71
2021/06/25 13:46:22;;;;;;;4.53;3.73;;;;;;;;;;4979559;28;20448;-73
2021/06/25 13:49:02;;;;;;;8.43;4.53;;;;;;;;;;4974935;28;21658;-70
2021/06/25 13:51:28;;;;;;;6.10;4.10;;;;;;;;;;4946872;28;20543;-71
2021/06/25 13:53:54;;;;;;;5.90;3.27;;;;;;;;;;4982591;28;20454;-72
2021/06/25 13:56:21;;;;;;;4.33;3.70;;;;;;;;;;4966339;28;20445;-71
2021/06/25 13:58:58;;;;;;;6.10;4.00;;;;;;;;;;4978693;28;20460;-72
2021/06/25 14:01:34;;;;;;;5.80;4.10;;;;;;;;;;4975877;28;20459;-74
2021/06/25 14:04:00;;;;;;;5.03;3.30;;;;;;;;;;4978804;28;20440;-72
2021/06/25 14:06:27;;;;;;;4.60;3.40;;;;;;;;;;4981841;28;20994;-71
2021/06/25 14:08:53;;;;;;;6.80;3.63;;;;;;;;;;4983174;28;20460;-71
2021/06/25 14:11:22;;;;;;;7.20;4.23;;;;;;;;;;4984858;28;20444;-70
2021/06/25 14:13:51;;;;;;;6.80;4.30;;;;;;;;;;4978419;28;20456;-71
2021/06/25 14:16:21;;;;;;;5.77;4.43;;;;;;;;;;4979167;28;20449;-71
2021/06/25 14:18:48;;;;;;;4.40;3.50;;;;;;;;;;4978629;28;20464;-72
2021/06/25 14:21:16;;;;;;;11.90;4.27;;;;;;;;;;4983390;28;20432;-69
2021/06/25 14:23:42;;;;;;;6.07;3.53;;;;;;;;;;4970160;28;20433;-71
2021/06/25 14:26:08;;;;;;;4.63;3.37;;;;;;;;;;4979458;28;20433;-71
2021/06/25 14:28:35;;;;;;;9.27;3.73;;;;;;;;;;4983886;28;20475;-73
2021/06/25 14:31:01;;;;;;;12.93;4.90;;;;;;;;;;4981693;28;20445;-71
2021/06/25 14:33:27;;;;;;;5.90;3.37;;;;;;;;;;4981990;28;20475;-72
2021/06/25 14:35:53;;;;;;;5.27;3.90;;;;;;;;;;4984599;28;20437;-71
2021/06/25 14:38:20;;;;;;;6.90;4.00;;;;;;;;;;4980596;28;20504;-70
2021/06/25 14:40:46;;;;;;;7.83;4.43;;;;;;;;;;4983806;28;20436;-71
2021/06/25 14:43:13;;;;;;;6.93;4.57;;;;;;;;;;4984447;28;20536;-71
2021/06/25 14:45:39;;;;;;;6.53;5.00;;;;;;;;;;4978695;28;21093;-72
2021/06/25 14:48:05;;;;;;;6.63;4.60;;;;;;;;;;4987338;28;20461;-71
2021/06/25 14:50:31;;;;;;;16.97;5.83;;;;;;;;;;4981276;28;20939;-71
2021/06/25 14:52:57;;;;;;;9.03;5.27;;;;;;;;;;4973580;28;20447;-72
2021/06/25 14:55:23;;;;;;;8.13;4.40;;;;;;;;;;4985442;28;20449;-71
2021/06/25 14:57:49;;;;;;;6.90;5.03;;;;;;;;;;4978925;28;20487;-69